sensor_id;sensor_type;location;lat;lon;timestamp;P1;durP1;ratioP1;P2;durP2;ratioP2
32329;SDS011;18807;52.434;13.238;2023-05-07T00:06:59;16.63;;;12.13;;
32329;SDS011;18807;52.434;13.238;2023-05-07T00:14:33;17.48;;;12.05;;
32329;SDS011;18807;52.434;13.238;2023-05-07T00:22:09;19.10;;;14.10;;
32329;SDS011;18807;52.434;13.238;2023-05-07T00:29:43;22.35;;;13.80;;
32329;SDS011;18807;52.434;13.238;2023-05-07T00:37:18;18.13;;;12.57;;
32329;SDS011;18807;52.434;13.238;2023-05-07T00:44:52;17.23;;;11.55;;
32329;SDS011;18807;52.434;13.238;2023-05-07T00:52:27;17.03;;;11.90;;
32329;SDS011;18807;52.434;13.238;2023-05-07T01:00:03;17.85;;;12.13;;
32329;SDS011;18807;52.434;13.238;2023-05-07T01:07:39;14.02;;;10.63;;
32329;SDS011;18807;52.434;13.238;2023-05-07T01:15:15;14.95;;;10.48;;
32329;SDS011;18807;52.434;13.238;2023-05-07T01:22:51;14.05;;;8.90;;
32329;SDS011;18807;52.434;13.238;2023-05-07T01:30:26;10.88;;;8.55;;
32329;SDS011;18807;52.434;13.238;2023-05-07T01:38:03;14.52;;;9.35;;
32329;SDS011;18807;52.434;13.238;2023-05-07T01:45:38;12.93;;;8.20;;
32329;SDS011;18807;52.434;13.238;2023-05-07T01:53:16;11.65;;;8.65;;
32329;SDS011;18807;52.434;13.238;2023-05-07T02:01:07;12.43;;;8.73;;
32329;SDS011;18807;52.434;13.238;2023-05-07T02:08:43;13.00;;;10.17;;
32329;SDS011;18807;52.434;13.238;2023-05-07T02:16:17;15.40;;;10.10;;
32329;SDS011;18807;52.434;13.238;2023-05-07T02:23:53;16.40;;;11.02;;
32329;SDS011;18807;52.434;13.238;2023-05-07T02:31:27;15.13;;;10.63;;
32329;SDS011;18807;52.434;13.238;2023-05-07T02:39:02;13.57;;;9.95;;
32329;SDS011;18807;52.434;13.238;2023-05-07T02:46:37;13.10;;;10.07;;
32329;SDS011;18807;52.434;13.238;2023-05-07T02:54:12;19.00;;;10.70;;
32329;SDS011;18807;52.434;13.238;2023-05-07T03:01:46;15.73;;;10.38;;
32329;SDS011;18807;52.434;13.238;2023-05-07T03:09:22;13.80;;;10.07;;
32329;SDS011;18807;52.434;13.238;2023-05-07T03:16:56;14.18;;;8.73;;
32329;SDS011;18807;52.434;13.238;2023-05-07T03:24:31;12.98;;;9.38;;
32329;SDS011;18807;52.434;13.238;2023-05-07T03:32:05;17.38;;;9.18;;
32329;SDS011;18807;52.434;13.238;2023-05-07T03:39:40;13.68;;;8.85;;
32329;SDS011;18807;52.434;13.238;2023-05-07T03:47:14;12.43;;;8.65;;
32329;SDS011;18807;52.434;13.238;2023-05-07T03:54:50;14.70;;;10.63;;
32329;SDS011;18807;52.434;13.238;2023-05-07T04:02:24;16.70;;;9.95;;
32329;SDS011;18807;52.434;13.238;2023-05-07T04:10:16;14.15;;;9.77;;
32329;SDS011;18807;52.434;13.238;2023-05-07T04:17:50;14.73;;;10.15;;
32329;SDS011;18807;52.434;13.238;2023-05-07T04:25:26;15.10;;;10.30;;
32329;SDS011;18807;52.434;13.238;2023-05-07T04:32:59;14.75;;;10.55;;
32329;SDS011;18807;52.434;13.238;2023-05-07T04:40:36;15.90;;;11.37;;
32329;SDS011;18807;52.434;13.238;2023-05-07T04:48:11;13.75;;;9.82;;
32329;SDS011;18807;52.434;13.238;2023-05-07T04:55:48;14.00;;;9.98;;
32329;SDS011;18807;52.434;13.238;2023-05-07T05:03:22;18.02;;;9.77;;
32329;SDS011;18807;52.434;13.238;2023-05-07T05:10:58;11.87;;;8.33;;
32329;SDS011;18807;52.434;13.238;2023-05-07T05:18:49;9.98;;;7.60;;
32329;SDS011;18807;52.434;13.238;2023-05-07T05:26:25;10.95;;;8.10;;
32329;SDS011;18807;52.434;13.238;2023-05-07T05:33:59;10.68;;;7.40;;
32329;SDS011;18807;52.434;13.238;2023-05-07T05:41:34;10.20;;;7.73;;
32329;SDS011;18807;52.434;13.238;2023-05-07T05:49:26;9.82;;;7.35;;
32329;SDS011;18807;52.434;13.238;2023-05-07T05:57:02;9.97;;;7.90;;
32329;SDS011;18807;52.434;13.238;2023-05-07T06:04:36;10.90;;;6.55;;
32329;SDS011;18807;52.434;13.238;2023-05-07T06:12:12;8.93;;;6.23;;
32329;SDS011;18807;52.434;13.238;2023-05-07T06:19:45;7.18;;;4.95;;
32329;SDS011;18807;52.434;13.238;2023-05-07T06:27:21;8.98;;;5.15;;
32329;SDS011;18807;52.434;13.238;2023-05-07T06:34:55;7.63;;;5.85;;
32329;SDS011;18807;52.434;13.238;2023-05-07T06:42:30;8.05;;;5.95;;
32329;SDS011;18807;52.434;13.238;2023-05-07T06:50:05;7.30;;;5.70;;
32329;SDS011;18807;52.434;13.238;2023-05-07T06:57:42;8.48;;;5.80;;
32329;SDS011;18807;52.434;13.238;2023-05-07T07:05:16;11.88;;;5.90;;
32329;SDS011;18807;52.434;13.238;2023-05-07T07:12:51;12.13;;;7.37;;
32329;SDS011;18807;52.434;13.238;2023-05-07T07:20:26;10.57;;;7.00;;
32329;SDS011;18807;52.434;13.238;2023-05-07T07:28:01;10.75;;;7.78;;
32329;SDS011;18807;52.434;13.238;2023-05-07T07:35:35;9.95;;;6.95;;
32329;SDS011;18807;52.434;13.238;2023-05-07T07:43:11;11.20;;;6.00;;
32329;SDS011;18807;52.434;13.238;2023-05-07T07:51:02;9.40;;;5.97;;
32329;SDS011;18807;52.434;13.238;2023-05-07T07:58:37;6.27;;;5.17;;
32329;SDS011;18807;52.434;13.238;2023-05-07T08:06:11;6.03;;;4.95;;
32329;SDS011;18807;52.434;13.238;2023-05-07T08:14:04;5.90;;;4.97;;
32329;SDS011;18807;52.434;13.238;2023-05-07T08:21:38;6.65;;;3.95;;
32329;SDS011;18807;52.434;13.238;2023-05-07T08:36:48;4.32;;;3.55;;
32329;SDS011;18807;52.434;13.238;2023-05-07T08:44:23;3.85;;;3.40;;
32329;SDS011;18807;52.434;13.238;2023-05-07T08:52:00;6.10;;;3.33;;
32329;SDS011;18807;52.434;13.238;2023-05-07T08:59:36;6.65;;;3.78;;
32329;SDS011;18807;52.434;13.238;2023-05-07T09:07:10;5.88;;;4.28;;
32329;SDS011;18807;52.434;13.238;2023-05-07T09:14:45;5.03;;;3.35;;
32329;SDS011;18807;52.434;13.238;2023-05-07T09:22:19;7.20;;;3.35;;
32329;SDS011;18807;52.434;13.238;2023-05-07T09:29:54;5.00;;;3.20;;
32329;SDS011;18807;52.434;13.238;2023-05-07T09:37:28;3.35;;;2.58;;
32329;SDS011;18807;52.434;13.238;2023-05-07T09:45:06;3.60;;;2.58;;
32329;SDS011;18807;52.434;13.238;2023-05-07T09:52:42;5.57;;;2.85;;
32329;SDS011;18807;52.434;13.238;2023-05-07T10:00:19;3.83;;;2.40;;
32329;SDS011;18807;52.434;13.238;2023-05-07T10:07:54;4.35;;;2.30;;
32329;SDS011;18807;52.434;13.238;2023-05-07T10:15:37;2.42;;;2.20;;
32329;SDS011;18807;52.434;13.238;2023-05-07T10:23:13;2.75;;;2.08;;
32329;SDS011;18807;52.434;13.238;2023-05-07T10:30:55;2.45;;;2.20;;
32329;SDS011;18807;52.434;13.238;2023-05-07T10:38:43;1.88;;;1.67;;
32329;SDS011;18807;52.434;13.238;2023-05-07T10:46:19;3.03;;;2.03;;
32329;SDS011;18807;52.434;13.238;2023-05-07T11:01:54;2.97;;;1.95;;
32329;SDS011;18807;52.434;13.238;2023-05-07T11:17:32;2.05;;;1.58;;
32329;SDS011;18807;52.434;13.238;2023-05-07T11:25:08;1.70;;;1.60;;
32329;SDS011;18807;52.434;13.238;2023-05-07T11:32:46;2.17;;;1.70;;
32329;SDS011;18807;52.434;13.238;2023-05-07T11:40:21;2.10;;;1.48;;
32329;SDS011;18807;52.434;13.238;2023-05-07T11:47:56;1.98;;;1.80;;
32329;SDS011;18807;52.434;13.238;2023-05-07T11:55:30;2.47;;;1.83;;
32329;SDS011;18807;52.434;13.238;2023-05-07T12:03:06;1.85;;;1.33;;
32329;SDS011;18807;52.434;13.238;2023-05-07T12:10:41;1.75;;;1.65;;
32329;SDS011;18807;52.434;13.238;2023-05-07T12:18:37;1.98;;;1.77;;
32329;SDS011;18807;52.434;13.238;2023-05-07T12:26:12;2.08;;;1.42;;
32329;SDS011;18807;52.434;13.238;2023-05-07T12:33:47;2.25;;;1.50;;
32329;SDS011;18807;52.434;13.238;2023-05-07T12:41:22;1.77;;;1.45;;
32329;SDS011;18807;52.434;13.238;2023-05-07T12:49:00;1.85;;;1.38;;
32329;SDS011;18807;52.434;13.238;2023-05-07T12:56:59;1.92;;;1.60;;
32329;SDS011;18807;52.434;13.238;2023-05-07T13:04:35;3.08;;;1.60;;
32329;SDS011;18807;52.434;13.238;2023-05-07T13:12:09;3.13;;;1.90;;
32329;SDS011;18807;52.434;13.238;2023-05-07T13:19:44;3.28;;;1.65;;
32329;SDS011;18807;52.434;13.238;2023-05-07T13:27:18;2.45;;;1.88;;
32329;SDS011;18807;52.434;13.238;2023-05-07T13:34:54;1.80;;;1.38;;
32329;SDS011;18807;52.434;13.238;2023-05-07T13:42:28;2.22;;;1.50;;
32329;SDS011;18807;52.434;13.238;2023-05-07T13:50:03;2.42;;;1.40;;
32329;SDS011;18807;52.434;13.238;2023-05-07T13:57:38;3.92;;;1.95;;
32329;SDS011;18807;52.434;13.238;2023-05-07T14:05:13;4.00;;;2.20;;
32329;SDS011;18807;52.434;13.238;2023-05-07T14:12:47;2.22;;;1.92;;
32329;SDS011;18807;52.434;13.238;2023-05-07T14:20:40;3.90;;;1.85;;
32329;SDS011;18807;52.434;13.238;2023-05-07T14:28:18;1.67;;;1.52;;
32329;SDS011;18807;52.434;13.238;2023-05-07T14:35:54;2.92;;;1.70;;
32329;SDS011;18807;52.434;13.238;2023-05-07T14:43:27;2.30;;;1.77;;
32329;SDS011;18807;52.434;13.238;2023-05-07T14:51:03;3.67;;;1.50;;
32329;SDS011;18807;52.434;13.238;2023-05-07T14:58:37;2.00;;;1.30;;
32329;SDS011;18807;52.434;13.238;2023-05-07T15:06:16;2.92;;;1.45;;
32329;SDS011;18807;52.434;13.238;2023-05-07T15:13:50;3.50;;;1.50;;
32329;SDS011;18807;52.434;13.238;2023-05-07T15:21:25;2.85;;;1.90;;
32329;SDS011;18807;52.434;13.238;2023-05-07T15:29:00;2.28;;;1.90;;
32329;SDS011;18807;52.434;13.238;2023-05-07T15:36:36;2.08;;;1.55;;
32329;SDS011;18807;52.434;13.238;2023-05-07T15:44:10;2.65;;;1.73;;
32329;SDS011;18807;52.434;13.238;2023-05-07T15:51:46;2.15;;;1.90;;
32329;SDS011;18807;52.434;13.238;2023-05-07T15:59:20;1.95;;;1.77;;
32329;SDS011;18807;52.434;13.238;2023-05-07T16:06:55;3.65;;;2.30;;
32329;SDS011;18807;52.434;13.238;2023-05-07T16:14:29;1.52;;;1.38;;
32329;SDS011;18807;52.434;13.238;2023-05-07T16:22:05;2.85;;;1.70;;
32329;SDS011;18807;52.434;13.238;2023-05-07T16:29:38;3.35;;;2.03;;
32329;SDS011;18807;52.434;13.238;2023-05-07T16:37:14;7.07;;;5.82;;
32329;SDS011;18807;52.434;13.238;2023-05-07T16:45:06;1.77;;;1.67;;
32329;SDS011;18807;52.434;13.238;2023-05-07T17:00:16;2.30;;;1.60;;
32329;SDS011;18807;52.434;13.238;2023-05-07T17:07:56;2.28;;;1.80;;
32329;SDS011;18807;52.434;13.238;2023-05-07T17:15:30;5.03;;;1.83;;
32329;SDS011;18807;52.434;13.238;2023-05-07T17:23:23;1.48;;;1.15;;
32329;SDS011;18807;52.434;13.238;2023-05-07T17:30:57;1.73;;;1.40;;
32329;SDS011;18807;52.434;13.238;2023-05-07T17:38:44;1.88;;;1.45;;
32329;SDS011;18807;52.434;13.238;2023-05-07T17:46:18;2.20;;;1.88;;
32329;SDS011;18807;52.434;13.238;2023-05-07T17:53:53;1.50;;;1.40;;
32329;SDS011;18807;52.434;13.238;2023-05-07T18:01:28;2.65;;;1.60;;
32329;SDS011;18807;52.434;13.238;2023-05-07T18:09:04;1.95;;;1.50;;
32329;SDS011;18807;52.434;13.238;2023-05-07T18:16:38;1.50;;;1.40;;
32329;SDS011;18807;52.434;13.238;2023-05-07T18:24:14;1.40;;;1.30;;
32329;SDS011;18807;52.434;13.238;2023-05-07T18:31:48;2.15;;;1.60;;
32329;SDS011;18807;52.434;13.238;2023-05-07T18:39:41;1.73;;;1.55;;
32329;SDS011;18807;52.434;13.238;2023-05-07T18:47:15;1.98;;;1.77;;
32329;SDS011;18807;52.434;13.238;2023-05-07T18:54:51;3.10;;;1.90;;
32329;SDS011;18807;52.434;13.238;2023-05-07T19:02:25;4.13;;;2.10;;
32329;SDS011;18807;52.434;13.238;2023-05-07T19:10:17;3.00;;;2.20;;
32329;SDS011;18807;52.434;13.238;2023-05-07T19:18:09;2.72;;;2.10;;
32329;SDS011;18807;52.434;13.238;2023-05-07T19:25:44;1.98;;;1.83;;
32329;SDS011;18807;52.434;13.238;2023-05-07T19:33:21;2.25;;;1.75;;
32329;SDS011;18807;52.434;13.238;2023-05-07T19:40:56;2.42;;;2.00;;
32329;SDS011;18807;52.434;13.238;2023-05-07T19:48:31;2.42;;;2.08;;
32329;SDS011;18807;52.434;13.238;2023-05-07T19:56:07;5.10;;;2.13;;
32329;SDS011;18807;52.434;13.238;2023-05-07T20:03:42;3.70;;;2.55;;
32329;SDS011;18807;52.434;13.238;2023-05-07T20:11:19;3.17;;;2.33;;
32329;SDS011;18807;52.434;13.238;2023-05-07T20:18:52;3.38;;;2.75;;
32329;SDS011;18807;52.434;13.238;2023-05-07T20:26:27;4.05;;;3.38;;
32329;SDS011;18807;52.434;13.238;2023-05-07T20:41:36;3.70;;;3.17;;
32329;SDS011;18807;52.434;13.238;2023-05-07T20:49:10;3.85;;;3.42;;
32329;SDS011;18807;52.434;13.238;2023-05-07T20:56:45;3.88;;;3.47;;
32329;SDS011;18807;52.434;13.238;2023-05-07T21:04:19;4.28;;;3.17;;
32329;SDS011;18807;52.434;13.238;2023-05-07T21:11:54;4.07;;;3.30;;
32329;SDS011;18807;52.434;13.238;2023-05-07T21:19:29;5.47;;;4.00;;
32329;SDS011;18807;52.434;13.238;2023-05-07T21:27:04;3.78;;;3.42;;
32329;SDS011;18807;52.434;13.238;2023-05-07T21:34:38;5.45;;;4.13;;
32329;SDS011;18807;52.434;13.238;2023-05-07T21:42:13;4.38;;;3.25;;
32329;SDS011;18807;52.434;13.238;2023-05-07T21:49:46;4.90;;;4.38;;
32329;SDS011;18807;52.434;13.238;2023-05-07T21:57:22;6.70;;;4.47;;
32329;SDS011;18807;52.434;13.238;2023-05-07T22:04:55;4.63;;;4.15;;
32329;SDS011;18807;52.434;13.238;2023-05-07T22:12:30;4.03;;;3.63;;
32329;SDS011;18807;52.434;13.238;2023-05-07T22:20:05;5.43;;;4.35;;
32329;SDS011;18807;52.434;13.238;2023-05-07T22:27:41;6.80;;;4.43;;
32329;SDS011;18807;52.434;13.238;2023-05-07T22:35:15;5.50;;;4.85;;
32329;SDS011;18807;52.434;13.238;2023-05-07T22:42:51;5.97;;;4.65;;
32329;SDS011;18807;52.434;13.238;2023-05-07T22:50:24;9.40;;;5.00;;
32329;SDS011;18807;52.434;13.238;2023-05-07T22:57:59;5.85;;;4.85;;
32329;SDS011;18807;52.434;13.238;2023-05-07T23:05:33;4.80;;;4.35;;
32329;SDS011;18807;52.434;13.238;2023-05-07T23:13:08;5.73;;;5.07;;
32329;SDS011;18807;52.434;13.238;2023-05-07T23:20:48;4.93;;;4.43;;
32329;SDS011;18807;52.434;13.238;2023-05-07T23:28:23;6.90;;;5.03;;
32329;SDS011;18807;52.434;13.238;2023-05-07T23:35:57;5.30;;;4.60;;
32329;SDS011;18807;52.434;13.238;2023-05-07T23:43:33;6.30;;;5.18;;
32329;SDS011;18807;52.434;13.238;2023-05-07T23:51:07;5.90;;;4.72;;
32329;SDS011;18807;52.434;13.238;2023-05-07T23:58:43;6.27;;;5.03;;
